Mobile, AL

3:15 PM CDT on July 29, 2015 (GMT -0500)
Huntleigh Woods | | Change Station
CLOSE
Current Station
Personal Weather Station
Location: Mobile, AL
Elevation: 226 ft
Nearby Weather Stations
Active Advisory: Heat Advisory

Elev 226 ft 30.68 °N, 88.20 °W | Updated 49 seconds ago

Mostly Cloudy
Mostly Cloudy
82.8 °F
Feels Like 91 °F
N
0.0
Wind Variable Wind from NW
Gusts 0.0 mph

Today
High -- | Low -- °F
--% Chance of Precip.
Yesterday
High -- | Low -- °F
Precip. -- in
6:08 AM 7:49 PM
Waxing Gibbous, 96% visible
Pressure 29.98 in
Visibility 7.0 miles
Clouds Mostly Cloudy 1800 ft
Mostly Cloudy 2700 ft
Heat Index 91 °F
Dew Point 76 °F
Humidity 80%
Rainfall 0.00 in
Snow Depth Not available.
UV 6 out of 12
Pollen 3.20 out of 12
Air Quality Not available.
Flu Activity Not available.
METAR KMOB 291956Z 00000KT 7SM BKN018 BKN027 25/24 A2998 RMK AO2 PK WND 33032/1857 WSHFT 1855 RAE42 TSE51 SLP150 CB DSNT ALQDS P0051 T02500239

More Conditions Fewer Conditions

Pressure 29.98 in
Visibility 7.0 miles
Clouds Mostly Cloudy 1800 ft
Mostly Cloudy 2700 ft
Heat Index 91 °F
Dew Point 76 °F
Humidity 80%
Rainfall 0.00 in
Snow Depth Not available.
UV 6 out of 12
Pollen 3.20 out of 12
Air Quality Not available.
Flu Activity Not available.
METAR KMOB 291956Z 00000KT 7SM BKN018 BKN027 25/24 A2998 RMK AO2 PK WND 33032/1857 WSHFT 1855 RAE42 TSE51 SLP150 CB DSNT ALQDS P0051 T02500239

More Conditions Fewer Conditions

10-Day Weather Forecast

×

Almanac

Astronomy

Jul. 29, 2015 Rise Set
Actual Time
Civil Twilight
Nautical Twilight
Astronomical Twilight
Moon
Length of Visible Light
Length of Day
Tomorrow will be .
, % of the Moon is Illuminated

Today's Extremes

State Highs State Lows

Community

WunderPhotos

Upload Photos

1,842,159 photos uploaded!

WunderBlogs® & News

Nearby

Air Quality

  Air Quality AQ Index Pollutant
Not available.

Snow Depth

Station Depth Elevation

Earthquake Activity

City Distance Mag. Time & Date
Minimum magnitude displayed is 2.5.

Coastal Water Temperatures

Place Temperature

Stations

Nearby Weather Stations

Station Location Temp. Windchill Dew Point Humidity Wind Precip. Elev Updated Type
                   
Heat Advisory
Statement as of 12:09 PM CDT on July 29, 2015

... Heat advisory remains in effect until 7 PM CDT this evening...

* temperature... afternoon highs between 93 and 98 degrees at
most locations.

* Heat index... maximum readings between 108 and 112 degrees.

* Impacts... hot temperatures and high humidity could lead to
heat related illnesses.

Precautionary/preparedness actions...

A heat advisory means that a period of hot temperatures is
expected. The combination of hot temperatures and high humidity
will combine to create a situation in which heat illnesses are
possible. Drink plenty of fluids... stay in an air-conditioned
room... stay out of the sun... and check up on relatives and
neighbors.